createdAt,value
2018-12-27T00:01:46.276Z,-1.20
2018-12-27T00:04:18.299Z,-1.07
2018-12-27T00:06:50.293Z,-1.08
2018-12-27T00:09:22.238Z,-1.02
2018-12-27T00:11:54.215Z,-1.00
2018-12-27T00:14:26.227Z,-0.95
2018-12-27T00:16:58.244Z,-0.96
2018-12-27T00:19:30.348Z,-0.97
2018-12-27T00:22:02.360Z,-0.99
2018-12-27T00:24:34.323Z,-0.96
2018-12-27T00:27:06.346Z,-0.88
2018-12-27T00:29:38.302Z,-0.98
2018-12-27T00:32:10.326Z,-1.03
2018-12-27T00:34:42.292Z,-1.05
2018-12-27T00:37:14.303Z,-1.02
2018-12-27T00:39:46.305Z,-1.14
2018-12-27T00:42:18.305Z,-1.13
2018-12-27T00:44:50.280Z,-1.17
2018-12-27T00:47:22.295Z,-1.11
2018-12-27T00:49:54.273Z,-1.15
2018-12-27T00:52:26.283Z,-1.02
2018-12-27T00:54:58.267Z,-1.05
2018-12-27T00:57:30.283Z,-1.08
2018-12-27T01:00:02.276Z,-1.02
2018-12-27T01:02:34.298Z,-1.07
2018-12-27T01:05:06.286Z,-1.06
2018-12-27T01:07:38.288Z,-1.00
2018-12-27T01:10:10.258Z,-1.09
2018-12-27T01:12:42.240Z,-1.05
2018-12-27T01:15:14.292Z,-1.01
2018-12-27T01:17:46.306Z,-1.01
2018-12-27T01:20:18.285Z,-1.00
2018-12-27T01:22:50.287Z,-0.99
2018-12-27T01:25:22.231Z,-1.02
2018-12-27T01:27:54.233Z,-1.00
2018-12-27T01:30:26.196Z,-0.99
2018-12-27T01:32:58.197Z,-1.02
2018-12-27T01:35:30.168Z,-1.06
2018-12-27T01:38:02.158Z,-1.07
2018-12-27T01:40:34.120Z,-1.22
2018-12-27T01:43:06.149Z,-1.29
2018-12-27T01:45:38.147Z,-1.23
2018-12-27T01:48:10.142Z,-1.22
2018-12-27T01:50:42.122Z,-1.15
2018-12-27T01:53:14.107Z,-1.15
2018-12-27T01:55:46.073Z,-1.16
2018-12-27T01:58:18.059Z,-1.14
2018-12-27T02:00:50.073Z,-1.11
2018-12-27T02:03:26.408Z,-1.10
2018-12-27T02:05:55.927Z,-1.12
2018-12-27T02:08:27.877Z,-1.11
2018-12-27T02:10:59.900Z,-1.14
2018-12-27T02:13:31.876Z,-1.17
2018-12-27T02:16:03.883Z,-1.22
2018-12-27T02:18:35.841Z,-1.30
2018-12-27T02:21:07.863Z,-1.33
2018-12-27T02:23:39.820Z,-1.34
2018-12-27T02:26:11.822Z,-1.38
2018-12-27T02:28:43.780Z,-1.42
2018-12-27T02:31:15.784Z,-1.46
2018-12-27T02:33:47.729Z,-1.42
2018-12-27T02:36:19.720Z,-1.44
2018-12-27T02:38:51.708Z,-1.50
2018-12-27T02:41:23.713Z,-1.51
2018-12-27T02:43:55.697Z,-1.47
2018-12-27T02:46:27.674Z,-1.48
2018-12-27T02:52:49.730Z,-1.47
2018-12-27T02:55:21.710Z,-1.48
2018-12-27T02:57:53.701Z,-1.52
2018-12-27T03:00:25.687Z,-1.55
2018-12-27T03:02:57.673Z,-1.61
2018-12-27T03:05:29.635Z,-1.61
2018-12-27T03:08:01.637Z,-1.64
2018-12-27T03:10:33.615Z,-1.63
2018-12-27T03:13:05.602Z,-1.65
2018-12-27T03:15:37.579Z,-1.64
2018-12-27T03:18:09.648Z,-1.65
2018-12-27T03:20:41.612Z,-1.57
2018-12-27T03:23:13.695Z,-1.63
2018-12-27T03:25:45.677Z,-1.53
2018-12-27T03:28:17.677Z,-1.61
2018-12-27T03:30:49.636Z,-1.63
2018-12-27T03:33:21.626Z,-1.73
2018-12-27T03:35:53.612Z,-1.68
2018-12-27T03:38:25.607Z,-1.65
2018-12-27T03:40:57.566Z,-1.73
2018-12-27T03:43:29.570Z,-1.74
2018-12-27T03:46:01.594Z,-1.76
2018-12-27T03:48:33.552Z,-1.81
2018-12-27T03:51:05.531Z,-1.67
2018-12-27T03:53:37.515Z,-1.76
2018-12-27T03:56:11.810Z,-1.90
2018-12-27T03:58:43.787Z,-1.95
2018-12-27T04:01:15.768Z,-2.01
2018-12-27T04:03:47.709Z,-1.99
2018-12-27T04:06:19.693Z,-2.06
2018-12-27T04:08:51.672Z,-2.01
2018-12-27T04:11:23.676Z,-1.98
2018-12-27T04:13:55.640Z,-1.99
2018-12-27T04:16:27.630Z,-1.99
2018-12-27T04:18:59.577Z,-1.97
2018-12-27T04:21:31.555Z,-1.91
2018-12-27T04:24:03.630Z,-1.81
2018-12-27T04:26:35.602Z,-1.81
2018-12-27T04:29:07.589Z,-1.75
2018-12-27T04:31:39.566Z,-1.89
2018-12-27T04:34:11.619Z,-1.96
2018-12-27T04:36:43.618Z,-2.00
2018-12-27T04:39:15.593Z,-1.96
2018-12-27T04:42:28.388Z,-1.90
2018-12-27T04:45:00.347Z,-1.94
2018-12-27T04:47:32.327Z,-1.88
2018-12-27T04:50:04.487Z,-1.86
2018-12-27T04:52:36.468Z,-1.85
2018-12-27T04:55:08.442Z,-1.78
2018-12-27T04:57:40.442Z,-1.72
2018-12-27T05:00:12.404Z,-1.53
2018-12-27T05:02:44.405Z,-1.62
2018-12-27T05:05:16.357Z,-1.66
2018-12-27T05:07:48.363Z,-1.65
2018-12-27T05:10:20.345Z,-1.63
2018-12-27T05:12:52.329Z,-1.68
2018-12-27T05:15:24.315Z,-1.66
2018-12-27T05:17:56.300Z,-1.62
2018-12-27T05:20:28.279Z,-1.68
2018-12-27T05:23:00.273Z,-1.68
2018-12-27T05:25:32.266Z,-1.65
2018-12-27T05:28:04.273Z,-1.63
2018-12-27T05:30:55.738Z,-1.65
2018-12-27T05:33:27.689Z,-1.63
2018-12-27T05:35:59.676Z,-1.61
2018-12-27T05:38:31.632Z,-1.67
2018-12-27T05:41:03.602Z,-1.73
2018-12-27T05:43:55.132Z,-1.77
2018-12-27T05:46:27.117Z,-1.77
2018-12-27T05:48:59.110Z,-1.77
2018-12-27T05:51:31.085Z,-1.86
2018-12-27T05:54:03.033Z,-1.94
2018-12-27T05:56:35.029Z,-1.94
2018-12-27T05:59:06.990Z,-1.92
2018-12-27T06:01:38.974Z,-1.89
2018-12-27T06:04:11.018Z,-1.86
2018-12-27T06:06:43.004Z,-1.79
2018-12-27T06:09:14.969Z,-1.77
2018-12-27T06:11:46.942Z,-1.79
2018-12-27T06:14:18.888Z,-1.73
2018-12-27T06:16:50.851Z,-1.68
2018-12-27T06:19:22.831Z,-1.73
2018-12-27T06:21:54.828Z,-1.67
2018-12-27T06:24:26.801Z,-1.69
2018-12-27T06:26:58.789Z,-1.68
2018-12-27T06:29:30.753Z,-1.70
2018-12-27T06:32:02.760Z,-1.70
2018-12-27T06:34:41.127Z,-1.74
2018-12-27T06:37:09.220Z,-1.83
2018-12-27T06:39:41.178Z,-1.87
2018-12-27T06:42:13.166Z,-1.82
2018-12-27T06:44:45.148Z,-1.77
2018-12-27T06:47:17.268Z,-1.77
2018-12-27T06:49:49.240Z,-1.72
2018-12-27T06:52:21.225Z,-1.59
2018-12-27T06:54:53.173Z,-1.61
2018-12-27T06:57:25.220Z,-1.57
2018-12-27T06:59:57.176Z,-1.50
2018-12-27T07:02:29.165Z,-1.48
2018-12-27T07:05:01.145Z,-1.44
2018-12-27T07:07:33.148Z,-1.45
2018-12-27T07:10:05.113Z,-1.45
2018-12-27T07:12:37.142Z,-1.45
2018-12-27T07:15:09.158Z,-1.36
2018-12-27T07:17:41.153Z,-1.39
2018-12-27T07:20:13.109Z,-1.34
2018-12-27T07:22:45.097Z,-1.38
2018-12-27T07:25:17.068Z,-1.37
2018-12-27T07:27:49.067Z,-1.27
2018-12-27T07:30:21.025Z,-1.31
2018-12-27T07:32:53.023Z,-1.15
2018-12-27T07:35:25.010Z,-1.24
2018-12-27T07:37:57.014Z,-1.29
2018-12-27T07:40:29.061Z,-1.32
2018-12-27T07:43:01.015Z,-1.43
2018-12-27T07:45:33.061Z,-1.44
2018-12-27T07:48:05.012Z,-1.38
2018-12-27T07:50:37.026Z,-1.34
2018-12-27T07:53:08.954Z,-1.28
2018-12-27T07:55:40.953Z,-1.33
2018-12-27T07:58:12.940Z,-1.30
2018-12-27T08:00:44.944Z,-1.17
2018-12-27T08:03:16.922Z,-1.09
2018-12-27T08:05:48.907Z,-1.02
2018-12-27T08:08:20.874Z,-1.06
2018-12-27T08:10:52.874Z,-1.08
2018-12-27T08:13:24.873Z,-1.07
2018-12-27T08:15:56.880Z,-0.98
2018-12-27T08:18:28.859Z,-1.01
2018-12-27T08:21:00.871Z,-0.86
2018-12-27T08:23:32.814Z,-0.85
2018-12-27T08:26:04.806Z,-0.76
2018-12-27T08:28:36.800Z,-0.55
2018-12-27T08:31:08.793Z,-0.60
2018-12-27T08:33:40.795Z,-0.52
2018-12-27T08:36:12.786Z,-0.39
2018-12-27T08:38:44.782Z,-0.36
2018-12-27T08:41:16.782Z,-0.24
2018-12-27T08:43:49.334Z,-0.23
2018-12-27T08:46:21.327Z,-0.16
2018-12-27T08:48:53.317Z,-0.08
2018-12-27T08:51:25.319Z,-0.01
2018-12-27T08:53:57.313Z,0.01
2018-12-27T08:56:29.420Z,0.08
2018-12-27T08:59:01.470Z,0.19
2018-12-27T09:01:33.444Z,0.26
2018-12-27T09:04:05.482Z,0.33
2018-12-27T09:06:37.471Z,0.43
2018-12-27T09:09:09.481Z,0.57
2018-12-27T09:11:41.451Z,0.62
2018-12-27T09:14:13.440Z,0.79
2018-12-27T09:16:45.476Z,0.75
2018-12-27T09:19:17.478Z,0.80
2018-12-27T09:21:49.469Z,0.79
2018-12-27T09:24:21.463Z,0.84
2018-12-27T09:26:53.463Z,0.85
2018-12-27T09:29:25.474Z,0.88
2018-12-27T09:31:57.459Z,0.95
2018-12-27T09:34:29.482Z,0.77
2018-12-27T09:37:01.464Z,0.75
2018-12-27T09:39:33.484Z,0.82
2018-12-27T09:42:05.466Z,0.72
2018-12-27T09:44:37.435Z,0.87
2018-12-27T09:47:09.427Z,0.95
2018-12-27T09:49:41.457Z,1.02
2018-12-27T09:52:13.452Z,1.06
2018-12-27T09:54:45.445Z,1.08
2018-12-27T09:57:17.438Z,0.98
2018-12-27T09:59:49.875Z,1.10
2018-12-27T10:02:21.833Z,1.23
2018-12-27T10:04:53.821Z,1.24
2018-12-27T10:07:25.813Z,1.39
2018-12-27T10:09:57.821Z,1.48
2018-12-27T10:12:29.827Z,1.61
2018-12-27T10:15:01.889Z,1.74
2018-12-27T10:17:33.836Z,1.86
2018-12-27T10:20:06.490Z,1.82
2018-12-27T10:22:38.479Z,1.82
2018-12-27T10:25:10.456Z,1.84
2018-12-27T10:27:42.430Z,1.92
2018-12-27T10:30:14.459Z,2.02
2018-12-27T10:32:46.448Z,2.11
2018-12-27T10:35:18.647Z,2.26
2018-12-27T10:37:50.689Z,2.20
2018-12-27T10:40:22.698Z,2.30
2018-12-27T10:42:54.868Z,2.18
2018-12-27T10:45:27.045Z,2.42
2018-12-27T10:47:59.048Z,2.27
2018-12-27T10:50:31.017Z,2.28
2018-12-27T10:53:02.996Z,2.37
2018-12-27T10:55:35.030Z,2.38
2018-12-27T10:58:07.071Z,2.29
2018-12-27T11:00:39.103Z,2.32
2018-12-27T11:03:11.106Z,2.34
2018-12-27T11:05:48.588Z,2.43
2018-12-27T11:08:16.996Z,2.47
2018-12-27T11:10:48.982Z,2.45
2018-12-27T11:13:20.976Z,2.56
2018-12-27T11:15:52.932Z,2.69
2018-12-27T11:18:24.949Z,2.68
2018-12-27T11:20:56.904Z,2.74
2018-12-27T11:23:28.913Z,2.77
2018-12-27T11:26:00.907Z,2.81
2018-12-27T11:28:32.907Z,2.91
2018-12-27T11:31:04.889Z,2.87
2018-12-27T11:33:36.905Z,2.86
2018-12-27T11:36:08.905Z,2.87
2018-12-27T11:38:40.934Z,2.90
2018-12-27T11:41:12.947Z,3.03
2018-12-27T11:43:44.984Z,3.13
2018-12-27T11:46:17.074Z,3.13
2018-12-27T11:48:49.089Z,3.24
2018-12-27T11:51:21.074Z,3.34
2018-12-27T11:53:53.064Z,3.37
2018-12-27T11:56:25.062Z,3.41
2018-12-27T11:58:57.153Z,3.42
2018-12-27T12:01:29.190Z,3.38
2018-12-27T12:04:01.210Z,3.40
2018-12-27T12:06:33.314Z,3.45
2018-12-27T12:09:06.074Z,3.53
2018-12-27T12:11:38.091Z,3.52
2018-12-27T12:14:10.116Z,3.66
2018-12-27T12:16:42.090Z,3.68
2018-12-27T12:19:14.288Z,3.61
2018-12-27T12:21:46.286Z,3.58
2018-12-27T12:24:18.262Z,3.64
2018-12-27T12:26:50.261Z,3.59
2018-12-27T12:29:22.630Z,3.57
2018-12-27T12:31:54.726Z,3.61
2018-12-27T12:34:26.728Z,3.58
2018-12-27T12:36:58.867Z,3.55
2018-12-27T12:39:30.907Z,3.56
2018-12-27T12:42:02.975Z,3.58
2018-12-27T12:44:34.959Z,3.60
2018-12-27T12:47:07.007Z,3.55
2018-12-27T12:49:39.010Z,3.53
2018-12-27T12:52:11.086Z,3.54
2018-12-27T12:54:43.089Z,3.55
2018-12-27T12:57:15.128Z,3.58
2018-12-27T12:59:47.165Z,3.55
2018-12-27T13:02:19.180Z,3.54
2018-12-27T13:04:51.174Z,3.48
2018-12-27T13:07:23.182Z,3.50
2018-12-27T13:09:55.177Z,3.45
2018-12-27T13:12:27.198Z,3.43
2018-12-27T13:14:59.247Z,3.42
2018-12-27T13:17:31.242Z,3.42
2018-12-27T13:20:03.700Z,3.44
2018-12-27T13:22:35.762Z,3.42
2018-12-27T13:25:07.713Z,3.43
2018-12-27T13:27:39.686Z,3.44
2018-12-27T13:30:11.695Z,3.42
2018-12-27T13:32:43.684Z,3.43
2018-12-27T13:35:15.727Z,3.44
2018-12-27T13:37:47.742Z,3.49
2018-12-27T13:40:19.736Z,3.52
2018-12-27T13:42:51.796Z,3.58
2018-12-27T13:45:23.797Z,3.56
2018-12-27T13:47:55.782Z,3.57
2018-12-27T13:50:27.773Z,3.54
2018-12-27T13:52:59.755Z,3.53
2018-12-27T13:55:31.797Z,3.56
2018-12-27T13:58:05.101Z,3.59
2018-12-27T14:00:37.284Z,3.62
2018-12-27T14:03:09.249Z,3.66
2018-12-27T14:05:41.271Z,3.63
2018-12-27T14:08:13.270Z,3.67
2018-12-27T14:10:45.282Z,3.65
2018-12-27T14:13:17.276Z,3.62
2018-12-27T14:15:49.318Z,3.59
2018-12-27T14:18:21.323Z,3.59
2018-12-27T14:20:53.305Z,3.57
2018-12-27T14:23:25.288Z,3.50
2018-12-27T14:25:57.329Z,3.51
2018-12-27T14:28:29.312Z,3.49
2018-12-27T14:31:01.318Z,3.49
2018-12-27T14:33:33.305Z,3.48
2018-12-27T14:36:05.317Z,3.45
2018-12-27T14:38:37.323Z,3.38
2018-12-27T14:41:09.336Z,3.36
2018-12-27T14:43:41.305Z,3.32
2018-12-27T14:46:13.337Z,3.30
2018-12-27T14:48:45.375Z,3.27
2018-12-27T14:51:17.336Z,3.26
2018-12-27T14:53:49.368Z,3.23
2018-12-27T14:56:21.356Z,3.21
2018-12-27T14:58:53.447Z,3.22
2018-12-27T15:01:25.431Z,3.19
2018-12-27T15:03:57.409Z,3.18
2018-12-27T15:06:29.427Z,3.18
2018-12-27T15:09:01.410Z,3.09
2018-12-27T15:11:33.393Z,3.05
2018-12-27T15:14:05.404Z,3.02
2018-12-27T15:16:37.379Z,2.98
2018-12-27T15:19:09.366Z,2.98
2018-12-27T15:21:41.357Z,2.91
2018-12-27T15:24:13.403Z,2.91
2018-12-27T15:26:45.391Z,2.86
2018-12-27T15:29:17.428Z,2.85
2018-12-27T15:31:49.403Z,2.80
2018-12-27T15:34:21.450Z,2.86
2018-12-27T15:36:54.475Z,2.82
2018-12-27T15:39:26.901Z,2.70
2018-12-27T15:41:58.918Z,2.66
2018-12-27T15:44:31.022Z,2.62
2018-12-27T15:47:03.018Z,2.58
2018-12-27T15:49:35.103Z,2.55
2018-12-27T15:52:07.080Z,2.49
2018-12-27T15:54:39.205Z,2.44
2018-12-27T15:57:11.259Z,2.36
2018-12-27T15:59:43.453Z,2.33
2018-12-27T16:02:16.640Z,2.25
2018-12-27T16:04:48.708Z,2.21
2018-12-27T16:07:20.712Z,2.21
2018-12-27T16:09:52.735Z,2.16
2018-12-27T16:12:24.803Z,2.15
2018-12-27T16:14:56.831Z,2.14
2018-12-27T16:17:28.847Z,2.12
2018-12-27T16:20:00.869Z,2.07
2018-12-27T16:22:32.944Z,2.06
2018-12-27T16:25:05.035Z,2.04
2018-12-27T16:27:37.074Z,2.03
2018-12-27T16:30:09.093Z,1.97
2018-12-27T16:32:42.415Z,1.95
2018-12-27T16:35:14.542Z,1.94
2018-12-27T16:37:46.596Z,1.93
2018-12-27T16:40:18.628Z,1.86
2018-12-27T16:42:50.651Z,1.85
2018-12-27T16:45:22.678Z,1.82
2018-12-27T16:47:55.817Z,1.82
2018-12-27T16:50:27.817Z,1.79
2018-12-27T16:52:59.844Z,1.74
2018-12-27T16:55:31.857Z,1.74
2018-12-27T16:58:03.960Z,1.74
2018-12-27T17:00:36.228Z,1.74
2018-12-27T17:03:08.313Z,1.68
2018-12-27T17:05:40.326Z,1.66
2018-12-27T17:08:12.338Z,1.62
2018-12-27T17:10:44.378Z,1.60
2018-12-27T17:13:16.384Z,1.60
2018-12-27T17:15:48.522Z,1.60
2018-12-27T17:18:20.641Z,1.57
2018-12-27T17:20:52.676Z,1.53
2018-12-27T17:23:24.742Z,1.49
2018-12-27T17:25:56.718Z,1.48
2018-12-27T17:28:28.797Z,1.43
2018-12-27T17:31:00.846Z,1.38
2018-12-27T17:33:32.812Z,1.40
2018-12-27T17:36:04.888Z,1.32
2018-12-27T17:38:36.989Z,1.33
2018-12-27T17:41:09.086Z,1.27
2018-12-27T17:43:41.074Z,1.26
2018-12-27T17:46:13.148Z,1.22
2018-12-27T17:48:45.163Z,1.23
2018-12-27T17:51:17.244Z,1.20
2018-12-27T17:53:49.259Z,1.19
2018-12-27T17:56:21.343Z,1.17
2018-12-27T17:58:53.333Z,1.18
2018-12-27T18:01:26.451Z,1.16
2018-12-27T18:03:58.557Z,1.17
2018-12-27T18:06:33.529Z,1.12
2018-12-27T18:09:06.800Z,1.13
2018-12-27T18:11:38.818Z,1.15
2018-12-27T18:14:10.805Z,1.16
2018-12-27T18:16:42.847Z,1.22
2018-12-27T18:19:14.935Z,1.24
2018-12-27T18:21:46.963Z,1.27
2018-12-27T18:24:18.988Z,1.32
2018-12-27T18:26:51.249Z,1.24
2018-12-27T18:29:23.279Z,1.22
2018-12-27T18:31:55.344Z,1.24
2018-12-27T18:34:27.346Z,1.25
2018-12-27T18:37:00.785Z,1.23
2018-12-27T18:39:32.847Z,1.22
2018-12-27T18:42:04.945Z,1.20
2018-12-27T18:44:38.075Z,1.21
2018-12-27T18:47:10.229Z,1.23
2018-12-27T18:49:42.220Z,1.18
2018-12-27T18:52:14.408Z,1.12
2018-12-27T18:54:47.821Z,1.18
2018-12-27T18:57:19.886Z,1.17
2018-12-27T18:59:51.940Z,1.09
2018-12-27T19:02:24.091Z,1.13
2018-12-27T19:04:56.125Z,1.14
2018-12-27T19:07:28.198Z,1.16
2018-12-27T19:10:00.262Z,1.15
2018-12-27T19:13:03.833Z,1.17
2018-12-27T19:15:47.380Z,1.12
2018-12-27T19:18:25.357Z,1.09
2018-12-27T19:21:45.176Z,1.04
2018-12-27T19:24:17.332Z,1.09
2018-12-27T19:26:51.189Z,1.01
2018-12-27T19:29:24.157Z,1.01
2018-12-27T19:31:56.155Z,0.97
2018-12-27T19:34:28.160Z,0.94
2018-12-27T19:37:00.287Z,0.93
2018-12-27T19:39:32.326Z,0.94
2018-12-27T19:42:04.467Z,0.97
2018-12-27T19:44:36.548Z,0.98
2018-12-27T19:47:08.661Z,0.90
2018-12-27T19:49:41.850Z,0.90
2018-12-27T19:52:13.923Z,0.88
2018-12-27T19:54:45.968Z,0.87
2018-12-27T19:57:19.789Z,0.86
2018-12-27T19:59:52.974Z,0.85
2018-12-27T20:02:25.013Z,0.89
2018-12-27T20:04:57.121Z,0.88
2018-12-27T20:07:29.147Z,0.86
2018-12-27T20:10:01.265Z,0.93
2018-12-27T20:12:33.307Z,0.93
2018-12-27T20:15:05.675Z,0.92
2018-12-27T20:17:37.847Z,0.91
2018-12-27T20:20:09.979Z,0.88
2018-12-27T20:22:43.128Z,0.91
2018-12-27T20:25:15.261Z,0.84
2018-12-27T20:27:47.876Z,0.85
2018-12-27T20:30:19.991Z,0.79
2018-12-27T20:32:52.163Z,0.78
2018-12-27T20:35:24.221Z,0.82
2018-12-27T20:37:56.303Z,0.80
2018-12-27T20:40:28.314Z,0.75
2018-12-27T20:43:00.354Z,0.79
2018-12-27T20:45:32.427Z,0.76
2018-12-27T20:48:04.513Z,0.80
2018-12-27T20:50:36.656Z,0.81
2018-12-27T20:53:10.557Z,0.78
2018-12-27T20:55:42.735Z,0.70
2018-12-27T20:58:14.980Z,0.69
2018-12-27T21:00:47.131Z,0.70
2018-12-27T21:03:19.404Z,0.75
2018-12-27T21:05:51.607Z,0.75
2018-12-27T21:08:24.036Z,0.79
2018-12-27T21:10:56.143Z,0.78
2018-12-27T21:13:28.263Z,0.80
2018-12-27T21:16:00.289Z,0.81
2018-12-27T21:18:32.409Z,0.83
2018-12-27T21:21:04.755Z,0.80
2018-12-27T21:23:36.961Z,0.90
2018-12-27T21:26:09.218Z,0.89
2018-12-27T21:28:41.239Z,0.85
2018-12-27T21:31:15.095Z,0.81
2018-12-27T21:33:47.353Z,0.87
2018-12-27T21:36:19.439Z,0.87
2018-12-27T21:38:51.478Z,0.86
2018-12-27T21:41:23.578Z,0.84
2018-12-27T21:43:55.760Z,0.85
2018-12-27T21:46:29.796Z,0.87
2018-12-27T21:49:01.863Z,0.88
2018-12-27T21:51:33.930Z,0.92
2018-12-27T21:54:05.956Z,0.95
2018-12-27T21:56:38.028Z,1.08
2018-12-27T21:59:10.181Z,0.99
2018-12-27T22:01:42.225Z,0.96
2018-12-27T22:04:14.334Z,0.98
2018-12-27T22:06:46.527Z,0.97
2018-12-27T22:09:18.629Z,0.99
2018-12-27T22:11:50.890Z,0.90
2018-12-27T22:14:22.891Z,0.92
2018-12-27T22:16:54.964Z,0.92
2018-12-27T22:19:27.111Z,0.88
2018-12-27T22:21:59.349Z,0.81
2018-12-27T22:24:32.602Z,0.80
2018-12-27T22:27:05.807Z,0.81
2018-12-27T22:29:37.889Z,0.86
2018-12-27T22:32:09.919Z,0.82
2018-12-27T22:34:41.967Z,0.85
2018-12-27T22:37:13.996Z,0.82
2018-12-27T22:39:46.047Z,0.76
2018-12-27T22:42:18.067Z,0.67
2018-12-27T22:44:51.950Z,0.67
2018-12-27T22:47:23.977Z,0.65
2018-12-27T22:49:56.015Z,0.63
2018-12-27T22:52:28.041Z,0.52
2018-12-27T22:55:00.096Z,0.62
2018-12-27T22:57:32.255Z,0.53
2018-12-27T23:00:07.886Z,0.50
2018-12-27T23:02:39.882Z,0.52
2018-12-27T23:05:11.923Z,0.53
2018-12-27T23:07:43.944Z,0.47
2018-12-27T23:10:15.955Z,0.44
2018-12-27T23:12:48.012Z,0.49
2018-12-27T23:15:20.064Z,0.40
2018-12-27T23:17:52.060Z,0.40
2018-12-27T23:20:24.207Z,0.41
2018-12-27T23:22:56.220Z,0.39
2018-12-27T23:25:28.251Z,0.38
2018-12-27T23:28:00.285Z,0.36
2018-12-27T23:30:32.388Z,0.38
2018-12-27T23:33:04.368Z,0.38
2018-12-27T23:35:36.712Z,0.33
2018-12-27T23:38:08.920Z,0.34
2018-12-27T23:40:41.019Z,0.33
2018-12-27T23:43:12.987Z,0.37
2018-12-27T23:45:45.004Z,0.40
2018-12-27T23:48:17.076Z,0.32
2018-12-27T23:50:49.265Z,0.29
2018-12-27T23:53:21.237Z,0.29
2018-12-27T23:55:53.310Z,0.28
2018-12-27T23:58:25.369Z,0.29
